createdAt,value
2023-03-02T00:00:43.838Z,27.27
2023-03-02T00:03:10.701Z,29.70
2023-03-02T00:05:39.689Z,28.73
2023-03-02T00:08:06.041Z,27.85
2023-03-02T00:10:32.350Z,15.07
2023-03-02T00:12:59.266Z,24.75
2023-03-02T00:15:25.720Z,24.70
2023-03-02T00:17:52.007Z,31.70
2023-03-02T00:20:18.426Z,30.70
2023-03-02T00:22:45.418Z,27.63
2023-03-02T00:25:13.911Z,32.30
2023-03-02T00:27:40.286Z,28.42
2023-03-02T00:30:08.270Z,30.17
2023-03-02T00:32:34.785Z,29.63
2023-03-02T00:35:01.272Z,24.27
2023-03-02T00:37:27.627Z,30.42
2023-03-02T00:39:54.254Z,33.63
2023-03-02T00:42:21.312Z,17.80
2023-03-02T00:44:47.616Z,28.73
2023-03-02T00:47:14.314Z,27.00
2023-03-02T00:49:40.647Z,31.25
2023-03-02T00:52:06.966Z,32.58
2023-03-02T00:54:33.339Z,29.33
2023-03-02T00:57:00.223Z,29.63
2023-03-02T00:59:26.763Z,33.13
2023-03-02T01:01:54.711Z,33.72
2023-03-02T01:04:21.012Z,28.10
2023-03-02T01:06:47.354Z,29.10
2023-03-02T01:09:13.623Z,35.20
2023-03-02T01:11:39.900Z,29.95
2023-03-02T01:14:06.234Z,26.35
2023-03-02T01:16:33.780Z,30.10
2023-03-02T01:19:00.485Z,28.40
2023-03-02T01:21:26.833Z,28.42
2023-03-02T01:23:53.175Z,28.38
2023-03-02T01:26:19.495Z,24.80
2023-03-02T01:28:45.812Z,30.83
2023-03-02T01:31:12.209Z,27.73
2023-03-02T01:33:38.535Z,31.52
2023-03-02T01:36:05.214Z,31.35
2023-03-02T01:38:31.676Z,27.83
2023-03-02T01:40:58.078Z,29.38
2023-03-02T01:43:24.483Z,28.63
2023-03-02T01:45:54.863Z,31.80
2023-03-02T01:48:31.532Z,31.05
2023-03-02T01:50:58.850Z,25.77
2023-03-02T01:53:29.256Z,30.85
2023-03-02T01:55:57.491Z,28.37
2023-03-02T01:58:25.708Z,28.35
2023-03-02T02:00:54.116Z,26.90
2023-03-02T02:03:26.006Z,33.95
2023-03-02T02:06:04.215Z,30.65
2023-03-02T02:08:31.079Z,26.90
2023-03-02T02:10:58.460Z,28.00
2023-03-02T02:13:25.037Z,26.40
2023-03-02T02:15:51.468Z,29.67
2023-03-02T02:18:17.992Z,29.25
2023-03-02T02:20:46.140Z,21.53
2023-03-02T02:23:27.410Z,30.00
2023-03-02T02:25:53.711Z,21.75
2023-03-02T02:28:45.147Z,30.05
2023-03-02T02:31:21.070Z,25.80
2023-03-02T02:33:52.320Z,27.33
2023-03-02T02:36:23.508Z,26.80
2023-03-02T02:38:54.410Z,29.08
2023-03-02T02:41:25.600Z,29.02
2023-03-02T02:43:52.199Z,26.27
2023-03-02T02:46:18.884Z,30.27
2023-03-02T02:48:45.305Z,26.73
2023-03-02T02:51:18.026Z,31.17
2023-03-02T02:53:49.810Z,28.88
2023-03-02T02:56:18.374Z,28.40
2023-03-02T02:58:51.892Z,25.80
2023-03-02T03:01:21.514Z,27.90
2023-03-02T03:04:00.980Z,28.42
2023-03-02T03:06:32.296Z,27.05
2023-03-02T03:09:02.593Z,24.15
2023-03-02T03:11:32.405Z,31.30
2023-03-02T03:14:04.194Z,27.27
2023-03-02T03:16:33.015Z,27.85
2023-03-02T03:19:04.754Z,29.23
2023-03-02T03:21:31.149Z,28.77
2023-03-02T03:23:57.447Z,26.37
2023-03-02T03:26:23.760Z,26.17
2023-03-02T03:28:50.148Z,28.38
2023-03-02T03:31:16.687Z,21.42
2023-03-02T03:33:43.084Z,26.20
2023-03-02T03:36:09.638Z,24.40
2023-03-02T03:38:35.943Z,22.80
2023-03-02T03:41:08.522Z,28.92
2023-03-02T03:43:35.042Z,24.75
2023-03-02T03:46:01.435Z,22.90
2023-03-02T03:48:27.819Z,22.27
2023-03-02T03:50:54.187Z,25.73
2023-03-02T03:53:20.613Z,21.83
2023-03-02T03:55:46.980Z,24.25
2023-03-02T03:58:13.367Z,24.17
2023-03-02T04:00:39.681Z,23.88
2023-03-02T04:03:06.048Z,24.80
2023-03-02T04:05:32.945Z,26.42
2023-03-02T04:08:02.067Z,29.88
2023-03-02T04:10:29.034Z,24.88
2023-03-02T04:12:55.823Z,27.17
2023-03-02T04:15:22.346Z,29.87
2023-03-02T04:17:48.922Z,24.20
2023-03-02T04:20:16.426Z,23.05
2023-03-02T04:22:46.847Z,23.77
2023-03-02T04:25:15.674Z,23.40
2023-03-02T04:27:41.988Z,23.27
2023-03-02T04:30:09.020Z,24.52
2023-03-02T04:32:35.450Z,22.58
2023-03-02T04:35:01.947Z,21.20
2023-03-02T04:37:28.435Z,21.65
2023-03-02T04:39:54.895Z,21.93
2023-03-02T04:42:21.872Z,27.30
2023-03-02T04:44:48.633Z,23.60
2023-03-02T04:47:15.248Z,25.65
2023-03-02T04:49:41.557Z,22.17
2023-03-02T04:52:07.896Z,20.87
2023-03-02T04:54:34.325Z,21.88
2023-03-02T04:57:00.649Z,23.70
2023-03-02T04:59:28.259Z,25.15
2023-03-02T05:01:57.431Z,22.17
2023-03-02T05:04:24.199Z,22.40
2023-03-02T05:06:50.691Z,21.08
2023-03-02T05:09:17.233Z,23.42
2023-03-02T05:11:43.688Z,19.77
2023-03-02T05:14:12.117Z,21.25
2023-03-02T05:16:41.098Z,21.90
2023-03-02T05:19:10.224Z,23.55
2023-03-02T05:21:36.608Z,23.02
2023-03-02T05:24:03.048Z,21.40
2023-03-02T05:26:29.581Z,23.67
2023-03-02T05:28:56.093Z,22.30
2023-03-02T05:31:28.972Z,24.02
2023-03-02T05:33:55.584Z,23.25
2023-03-02T05:36:23.336Z,23.40
2023-03-02T05:38:49.966Z,22.73
2023-03-02T05:41:16.414Z,23.70
2023-03-02T05:43:42.795Z,25.25
2023-03-02T05:46:09.284Z,21.67
2023-03-02T05:48:35.777Z,24.30
2023-03-02T05:51:02.177Z,22.13
2023-03-02T05:53:29.462Z,19.77
2023-03-02T05:55:56.163Z,22.27
2023-03-02T05:58:22.683Z,22.92
2023-03-02T06:00:49.574Z,20.35
2023-03-02T06:03:16.678Z,23.92
2023-03-02T06:05:43.293Z,23.47
2023-03-02T06:08:09.841Z,23.42
2023-03-02T06:10:36.420Z,21.90
2023-03-02T06:13:03.048Z,22.50
2023-03-02T06:15:29.429Z,20.83
2023-03-02T06:17:58.851Z,21.73
2023-03-02T06:20:25.913Z,25.80
2023-03-02T06:22:52.294Z,21.10
2023-03-02T06:25:24.353Z,24.08
2023-03-02T06:27:51.472Z,24.48
2023-03-02T06:30:22.764Z,22.07
2023-03-02T06:32:49.320Z,20.75
2023-03-02T06:35:16.233Z,24.15
2023-03-02T06:37:44.365Z,24.80
2023-03-02T06:40:12.419Z,27.02
2023-03-02T06:42:39.932Z,25.87
2023-03-02T06:45:07.853Z,23.20
2023-03-02T06:47:34.486Z,23.70
2023-03-02T06:50:01.271Z,22.70
2023-03-02T06:52:27.680Z,28.27
2023-03-02T06:54:55.419Z,25.37
2023-03-02T06:57:21.864Z,24.95
2023-03-02T06:59:48.482Z,23.88
2023-03-02T07:02:14.779Z,25.75
2023-03-02T07:04:41.211Z,24.25
2023-03-02T07:07:07.573Z,23.13
2023-03-02T07:09:34.120Z,31.08
2023-03-02T07:12:00.819Z,23.67
2023-03-02T07:14:27.225Z,23.58
2023-03-02T07:16:53.714Z,22.20
2023-03-02T07:19:20.085Z,25.10
2023-03-02T07:21:46.500Z,27.60
2023-03-02T07:24:12.953Z,24.40
2023-03-02T07:26:39.305Z,22.88
2023-03-02T07:29:05.640Z,21.67
2023-03-02T07:31:32.389Z,27.33
2023-03-02T07:33:58.986Z,22.58
2023-03-02T07:36:25.409Z,24.73
2023-03-02T07:38:51.747Z,24.95
2023-03-02T07:41:18.138Z,19.67
2023-03-02T07:43:44.554Z,19.60
2023-03-02T07:46:11.038Z,21.85
2023-03-02T07:48:37.516Z,22.42
2023-03-02T07:51:05.861Z,27.52
2023-03-02T07:53:32.466Z,23.33
2023-03-02T07:55:58.964Z,26.97
2023-03-02T07:58:25.337Z,25.67
2023-03-02T08:00:51.859Z,23.25
2023-03-02T08:03:18.161Z,23.52
2023-03-02T08:05:45.074Z,21.90
2023-03-02T08:08:11.480Z,21.37
2023-03-02T08:10:38.028Z,22.83
2023-03-02T08:13:04.977Z,22.85
2023-03-02T08:15:31.419Z,21.98
2023-03-02T08:17:57.800Z,19.17
2023-03-02T08:20:24.723Z,20.53
2023-03-02T08:22:51.082Z,21.98
2023-03-02T08:25:18.514Z,18.48
2023-03-02T08:27:45.458Z,22.52
2023-03-02T08:30:13.043Z,22.63
2023-03-02T08:32:39.899Z,24.37
2023-03-02T08:35:07.084Z,21.33
2023-03-02T08:37:34.607Z,23.83
2023-03-02T08:40:01.246Z,19.60
2023-03-02T08:42:27.701Z,20.80
2023-03-02T08:44:54.065Z,20.43
2023-03-02T08:47:20.413Z,18.88
2023-03-02T08:49:48.158Z,20.20
2023-03-02T08:52:14.878Z,24.42
2023-03-02T08:54:41.308Z,25.52
2023-03-02T08:57:10.888Z,19.23
2023-03-02T08:59:37.266Z,15.93
2023-03-02T09:02:03.780Z,19.65
2023-03-02T09:04:30.194Z,17.80
2023-03-02T09:06:56.931Z,19.88
2023-03-02T09:09:23.370Z,24.67
2023-03-02T09:11:49.786Z,21.23
2023-03-02T09:14:16.082Z,23.08
2023-03-02T09:16:42.577Z,23.25
2023-03-02T09:19:11.513Z,19.40
2023-03-02T09:21:37.892Z,18.87
2023-03-02T09:24:04.492Z,20.95
2023-03-02T09:26:30.952Z,22.42
2023-03-02T09:28:57.592Z,19.67
2023-03-02T09:31:24.401Z,19.45
2023-03-02T09:33:50.892Z,16.47
2023-03-02T09:36:22.171Z,17.77
2023-03-02T09:38:48.966Z,20.77
2023-03-02T09:41:21.350Z,18.17
2023-03-02T09:44:00.245Z,21.23
2023-03-02T09:46:34.473Z,24.20
2023-03-02T09:49:34.964Z,23.05
2023-03-02T09:52:30.352Z,24.20
2023-03-02T09:55:01.367Z,19.50
2023-03-02T09:57:32.707Z,19.73
2023-03-02T10:00:12.899Z,23.53
2023-03-02T10:02:49.696Z,23.27
2023-03-02T10:05:40.437Z,22.67
2023-03-02T10:08:15.353Z,21.67
2023-03-02T10:10:48.575Z,24.58
2023-03-02T10:13:47.618Z,16.93
2023-03-02T10:16:35.034Z,23.88
2023-03-02T10:19:41.177Z,22.90
2023-03-02T10:22:16.912Z,19.10
2023-03-02T10:25:20.590Z,20.05
2023-03-02T10:27:55.972Z,17.27
2023-03-02T10:30:35.421Z,22.60
2023-03-02T10:33:22.189Z,22.02
2023-03-02T10:35:52.388Z,21.58
2023-03-02T10:38:21.677Z,18.50
2023-03-02T10:40:56.879Z,16.87
2023-03-02T10:43:30.251Z,24.50
2023-03-02T10:46:08.289Z,25.75
2023-03-02T10:48:54.870Z,26.95
2023-03-02T10:51:26.872Z,26.75
2023-03-02T10:54:04.582Z,32.73
2023-03-02T10:56:32.568Z,26.67
2023-03-02T10:58:59.088Z,25.63
2023-03-02T11:01:25.438Z,24.55
2023-03-02T11:04:00.571Z,24.23
2023-03-02T11:06:28.959Z,25.57
2023-03-02T11:09:00.040Z,24.67
2023-03-02T11:11:27.505Z,27.83
2023-03-02T11:13:53.921Z,22.65
2023-03-02T11:16:20.247Z,20.38
2023-03-02T11:18:53.948Z,25.53
2023-03-02T11:21:40.462Z,26.30
2023-03-02T11:24:12.622Z,24.95
2023-03-02T11:27:06.991Z,28.15
2023-03-02T11:29:36.922Z,18.83
2023-03-02T11:32:13.134Z,26.07
2023-03-02T11:34:56.942Z,22.35
2023-03-02T11:37:34.349Z,25.83
2023-03-02T11:40:12.702Z,24.65
2023-03-02T11:42:42.377Z,29.02
2023-03-02T11:45:17.112Z,26.27
2023-03-02T11:48:17.618Z,23.83
2023-03-02T11:51:05.757Z,27.60
2023-03-02T11:53:46.257Z,28.67
2023-03-02T11:56:12.609Z,25.02
2023-03-02T11:58:39.717Z,25.13
2023-03-02T12:01:10.279Z,22.05
2023-03-02T12:03:39.342Z,24.42
2023-03-02T12:06:07.739Z,27.23
2023-03-02T12:08:41.077Z,20.92
2023-03-02T12:11:16.416Z,22.43
2023-03-02T12:13:58.025Z,25.80
2023-03-02T12:16:36.775Z,23.13
2023-03-02T12:19:23.986Z,28.45
2023-03-02T12:22:00.649Z,26.67
2023-03-02T12:24:32.912Z,23.53
2023-03-02T12:27:19.475Z,25.23
2023-03-02T12:29:49.535Z,25.95
2023-03-02T12:32:18.929Z,23.52
2023-03-02T12:34:53.281Z,25.17
2023-03-02T12:37:33.126Z,22.40
2023-03-02T12:40:41.667Z,19.77
2023-03-02T12:43:27.116Z,23.08
2023-03-02T12:46:05.544Z,24.13
2023-03-02T12:49:00.376Z,23.02
2023-03-02T12:51:49.178Z,26.13
2023-03-02T12:54:20.443Z,22.92
2023-03-02T12:56:48.417Z,21.30
2023-03-02T12:59:27.005Z,23.80
2023-03-02T13:02:15.391Z,19.15
2023-03-02T13:04:41.853Z,21.23
2023-03-02T13:07:16.974Z,20.08
2023-03-02T13:09:55.663Z,24.48
2023-03-02T13:12:23.082Z,18.88
2023-03-02T13:14:56.054Z,23.13
2023-03-02T13:17:31.846Z,16.87
2023-03-02T13:20:00.697Z,15.88
2023-03-02T13:22:27.731Z,16.80
2023-03-02T13:24:58.764Z,16.95
2023-03-02T13:27:25.725Z,22.45
2023-03-02T13:29:52.950Z,19.40
2023-03-02T13:32:24.946Z,21.27
2023-03-02T13:34:58.865Z,17.38
2023-03-02T13:37:39.649Z,18.70
2023-03-02T13:40:32.414Z,17.70
2023-03-02T13:42:58.820Z,14.77
2023-03-02T13:45:27.888Z,19.30
2023-03-02T13:47:55.965Z,18.25
2023-03-02T13:50:28.618Z,17.42
2023-03-02T13:52:57.544Z,19.80
2023-03-02T13:55:24.280Z,15.43
2023-03-02T13:57:52.672Z,18.27
2023-03-02T14:00:26.812Z,17.15
2023-03-02T14:02:53.159Z,19.33
2023-03-02T14:05:21.661Z,19.02
2023-03-02T14:07:48.460Z,16.00
2023-03-02T14:10:17.186Z,18.10
2023-03-02T14:12:53.640Z,20.98
2023-03-02T14:15:20.223Z,18.17
2023-03-02T14:17:47.072Z,16.88
2023-03-02T14:20:16.695Z,17.27
2023-03-02T14:22:42.994Z,16.60
2023-03-02T14:25:09.594Z,16.80
2023-03-02T14:27:37.168Z,18.33
2023-03-02T14:30:18.489Z,16.13
2023-03-02T14:32:45.686Z,19.53
2023-03-02T14:35:14.223Z,16.00
2023-03-02T14:37:43.982Z,14.68
2023-03-02T14:40:25.300Z,16.52
2023-03-02T14:42:51.615Z,18.20
2023-03-02T14:45:17.944Z,16.67
2023-03-02T14:47:44.589Z,17.02
2023-03-02T14:50:11.844Z,17.15
2023-03-02T14:52:45.392Z,20.00
2023-03-02T14:55:24.636Z,18.85
2023-03-02T14:57:57.834Z,18.37
2023-03-02T15:00:24.881Z,18.55
2023-03-02T15:02:52.004Z,20.65
2023-03-02T15:05:18.875Z,20.02
2023-03-02T15:07:45.683Z,19.88
2023-03-02T15:10:15.419Z,17.10
2023-03-02T15:12:41.872Z,17.55
2023-03-02T15:15:08.990Z,20.58
2023-03-02T15:17:35.279Z,20.20
2023-03-02T15:20:01.608Z,18.83
2023-03-02T15:22:27.910Z,19.83
2023-03-02T15:24:54.781Z,22.27
2023-03-02T15:27:21.170Z,21.75
2023-03-02T15:29:47.729Z,19.83
2023-03-02T15:32:14.434Z,25.10
2023-03-02T15:34:40.792Z,20.87
2023-03-02T15:37:07.316Z,20.80
2023-03-02T15:39:33.626Z,22.20
2023-03-02T15:42:00.546Z,19.52
2023-03-02T15:44:26.877Z,22.38
2023-03-02T15:46:54.977Z,18.87
2023-03-02T15:49:21.380Z,21.05
2023-03-02T15:51:47.727Z,19.33
2023-03-02T15:54:14.163Z,19.60
2023-03-02T15:56:44.407Z,18.27
2023-03-02T15:59:11.694Z,19.10
2023-03-02T16:01:38.019Z,17.95
2023-03-02T16:04:04.291Z,15.85
2023-03-02T16:06:30.632Z,15.45
2023-03-02T16:08:57.000Z,15.43
2023-03-02T16:11:23.518Z,12.30
2023-03-02T16:13:50.570Z,14.40
2023-03-02T16:16:18.050Z,16.05
2023-03-02T16:18:49.029Z,15.95
2023-03-02T16:21:15.358Z,16.90
2023-03-02T16:23:41.650Z,17.03
2023-03-02T16:26:09.922Z,17.45
2023-03-02T16:28:36.265Z,14.98
2023-03-02T16:31:09.196Z,20.05
2023-03-02T16:33:36.258Z,14.73
2023-03-02T16:36:02.606Z,15.47
2023-03-02T16:38:29.912Z,14.90
2023-03-02T16:40:57.244Z,14.63
2023-03-02T16:43:23.703Z,15.93
2023-03-02T16:45:51.262Z,16.50
2023-03-02T16:48:17.737Z,13.50
2023-03-02T16:50:44.281Z,14.80
2023-03-02T16:53:10.963Z,17.88
2023-03-02T16:55:38.312Z,13.30
2023-03-02T16:58:05.139Z,14.23
2023-03-02T17:00:31.491Z,13.90
2023-03-02T17:02:57.833Z,13.48
2023-03-02T17:05:24.227Z,14.70
2023-03-02T17:07:51.562Z,16.13
2023-03-02T17:10:22.322Z,16.20
2023-03-02T17:12:48.647Z,15.67
2023-03-02T17:15:14.993Z,19.83
2023-03-02T17:17:41.436Z,19.08
2023-03-02T17:20:09.034Z,15.40
2023-03-02T17:22:35.413Z,18.10
2023-03-02T17:25:04.422Z,17.30
2023-03-02T17:27:31.084Z,16.73
2023-03-02T17:29:57.411Z,18.80
2023-03-02T17:32:24.237Z,19.17
2023-03-02T17:34:50.635Z,17.15
2023-03-02T17:37:17.632Z,16.50
2023-03-02T17:39:44.170Z,16.40
2023-03-02T17:42:10.594Z,15.05
2023-03-02T17:44:40.574Z,17.30
2023-03-02T17:47:07.795Z,15.65
2023-03-02T17:49:37.946Z,16.13
2023-03-02T17:52:04.280Z,14.30
2023-03-02T17:54:30.594Z,13.48
2023-03-02T17:56:57.062Z,14.13
2023-03-02T17:59:23.462Z,15.60
2023-03-02T18:01:49.852Z,14.40
2023-03-02T18:04:16.256Z,15.02
2023-03-02T18:06:42.717Z,13.77
2023-03-02T18:09:12.188Z,13.80
2023-03-02T18:11:38.997Z,16.45
2023-03-02T18:14:05.260Z,15.20
2023-03-02T18:16:31.743Z,14.70
2023-03-02T18:19:00.070Z,23.20
2023-03-02T18:21:26.437Z,14.70
2023-03-02T18:23:52.833Z,19.65
2023-03-02T18:26:19.287Z,13.23
2023-03-02T18:28:46.260Z,14.63
2023-03-02T18:31:15.287Z,14.93
2023-03-02T18:33:42.268Z,17.38
2023-03-02T18:36:09.336Z,17.15
2023-03-02T18:38:37.000Z,18.00
2023-03-02T18:41:06.216Z,15.32
2023-03-02T18:43:34.588Z,14.18
2023-03-02T18:46:01.934Z,18.77
2023-03-02T18:48:28.627Z,16.95
2023-03-02T18:50:55.042Z,16.70
2023-03-02T18:53:21.661Z,16.85
2023-03-02T18:55:48.140Z,15.23
2023-03-02T18:58:20.509Z,15.00
2023-03-02T19:00:47.682Z,16.58
2023-03-02T19:03:16.418Z,17.30
2023-03-02T19:05:43.498Z,14.57
2023-03-02T19:08:10.712Z,14.20
2023-03-02T19:10:38.843Z,14.75
2023-03-02T19:13:06.171Z,13.85
2023-03-02T19:15:33.491Z,15.03
2023-03-02T19:17:59.874Z,12.82
2023-03-02T19:20:26.868Z,18.38
2023-03-02T19:22:54.394Z,19.35
2023-03-02T19:25:21.261Z,17.25
2023-03-02T19:27:47.860Z,15.70
2023-03-02T19:30:18.945Z,14.38
2023-03-02T19:32:45.400Z,13.18
2023-03-02T19:35:15.051Z,16.05
2023-03-02T19:37:41.369Z,18.25
2023-03-02T19:40:11.128Z,15.27
2023-03-02T19:42:37.684Z,15.13
2023-03-02T19:45:04.341Z,14.52
2023-03-02T19:47:30.676Z,16.85
2023-03-02T19:49:56.967Z,16.63
2023-03-02T19:52:23.392Z,17.90
2023-03-02T19:54:49.865Z,16.52
2023-03-02T19:57:16.593Z,17.35
2023-03-02T19:59:43.043Z,16.35
2023-03-02T20:02:09.478Z,16.42
2023-03-02T20:04:36.102Z,15.03
2023-03-02T20:07:02.620Z,14.68
2023-03-02T20:09:29.084Z,16.63
2023-03-02T20:11:55.488Z,15.20
2023-03-02T20:14:33.302Z,16.30
2023-03-02T20:17:01.852Z,15.03
2023-03-02T20:19:28.244Z,13.98
2023-03-02T20:21:54.576Z,17.20
2023-03-02T20:24:20.896Z,18.70
2023-03-02T20:26:47.752Z,19.77
2023-03-02T20:29:15.458Z,19.60
2023-03-02T20:31:42.192Z,20.02
2023-03-02T20:34:11.546Z,19.45
2023-03-02T20:36:38.282Z,16.38
2023-03-02T20:39:15.600Z,17.52
2023-03-02T20:41:42.809Z,15.60
2023-03-02T20:44:10.669Z,18.38
2023-03-02T20:46:44.344Z,19.60
2023-03-02T20:49:15.319Z,19.27
2023-03-02T20:51:45.124Z,18.40
2023-03-02T20:54:11.672Z,17.97
2023-03-02T20:56:38.005Z,19.00
2023-03-02T20:59:04.400Z,24.05
2023-03-02T21:01:30.900Z,17.92
2023-03-02T21:03:57.476Z,20.00
2023-03-02T21:06:23.879Z,24.20
2023-03-02T21:08:50.414Z,19.05
2023-03-02T21:11:19.463Z,17.20
2023-03-02T21:13:46.923Z,18.92
2023-03-02T21:16:24.824Z,16.88
2023-03-02T21:18:51.802Z,19.47
2023-03-02T21:21:19.233Z,18.15
2023-03-02T21:23:47.211Z,16.27
2023-03-02T21:26:15.220Z,18.63
2023-03-02T21:28:42.627Z,16.35
2023-03-02T21:31:08.959Z,18.50
2023-03-02T21:33:35.308Z,18.10
2023-03-02T21:36:01.609Z,18.40
2023-03-02T21:38:28.152Z,17.45
2023-03-02T21:40:54.532Z,21.88
2023-03-02T21:43:20.889Z,18.13
2023-03-02T21:45:47.718Z,18.33
2023-03-02T21:48:14.769Z,21.80
2023-03-02T21:50:41.618Z,17.88
2023-03-02T21:53:07.978Z,16.25
2023-03-02T21:55:35.243Z,16.27
2023-03-02T21:58:02.376Z,18.00
2023-03-02T22:00:32.703Z,15.80
2023-03-02T22:03:00.488Z,17.23
2023-03-02T22:05:27.793Z,18.45
2023-03-02T22:07:54.328Z,18.77
2023-03-02T22:10:41.580Z,17.08
2023-03-02T22:13:22.103Z,16.65
2023-03-02T22:15:50.072Z,16.48
2023-03-02T22:18:21.045Z,15.60
2023-03-02T22:20:51.357Z,16.07
2023-03-02T22:23:20.323Z,16.17
2023-03-02T22:25:49.156Z,14.35
2023-03-02T22:28:23.769Z,14.43
2023-03-02T22:30:51.739Z,16.75
2023-03-02T22:33:24.253Z,13.70
2023-03-02T22:35:52.634Z,14.40
2023-03-02T22:38:24.579Z,16.20
2023-03-02T22:40:52.296Z,13.55
2023-03-02T22:43:26.400Z,14.48
2023-03-02T22:45:53.932Z,13.83
2023-03-02T22:48:22.268Z,14.32
2023-03-02T22:50:49.886Z,15.10
2023-03-02T22:53:32.811Z,13.93
2023-03-02T22:56:14.204Z,15.02
2023-03-02T22:58:50.711Z,13.60
2023-03-02T23:01:24.029Z,13.25
2023-03-02T23:04:14.746Z,14.18
2023-03-02T23:06:43.369Z,14.50
2023-03-02T23:09:09.632Z,12.48
2023-03-02T23:11:38.728Z,13.53
2023-03-02T23:14:54.622Z,12.25
2023-03-02T23:17:30.564Z,13.82
2023-03-02T23:19:57.385Z,9.73
2023-03-02T23:22:23.778Z,12.15
2023-03-02T23:24:50.163Z,10.93
2023-03-02T23:27:16.551Z,12.60
2023-03-02T23:29:42.927Z,10.13
2023-03-02T23:32:09.375Z,10.73
2023-03-02T23:34:35.876Z,7.97
2023-03-02T23:37:02.224Z,10.70
2023-03-02T23:39:28.521Z,10.27
2023-03-02T23:41:55.051Z,9.73
2023-03-02T23:44:21.579Z,9.50
2023-03-02T23:46:48.270Z,9.57
2023-03-02T23:49:15.310Z,9.00
2023-03-02T23:51:41.942Z,9.38
2023-03-02T23:54:08.346Z,8.38
2023-03-02T23:56:34.816Z,8.32
2023-03-02T23:59:01.393Z,9.50
